South Milford, Indiana
Current Conditions -  °F | °C
As of 11:15 AM on Saturday 20 Dec 2014 (Local Time) from KANQ Reporting Station
Overcast Overcast  
Wind Chill: 23°   Ceiling: 3200
Heat Index: 28°   Visibility: 10mi
Dew Point: 23°   Wind: 5mph
Humidity: 80%   Direction: 190°S
Pressure: 30.28"   Gusts: NA
Location:  41.53°N, 85.27°W
Report Text: KANQ 201615Z AUTO 19004KT 10SM OVC032 M02/M05 A3028 RMK
Loading
Personal Weather Stations






























Interactive Weather Map New forecast layout! Learn more

10-Day Weather Forecast

Advertisements
Track Severe Weather on mobile